createdAt,value
2023-04-01T00:00:52.878Z,2.66
2023-04-01T00:03:56.697Z,2.84
2023-04-01T00:07:00.388Z,2.84
2023-04-01T00:10:04.335Z,3.25
2023-04-01T00:13:08.597Z,2.88
2023-04-01T00:16:21.071Z,2.71
2023-04-01T00:19:26.772Z,2.89
2023-04-01T00:22:30.944Z,3.19
2023-04-01T00:25:35.051Z,2.61
2023-04-01T00:28:40.316Z,2.66
2023-04-01T00:31:44.645Z,2.43
2023-04-01T00:34:51.757Z,2.54
2023-04-01T00:37:56.788Z,2.65
2023-04-01T00:41:02.303Z,2.54
2023-04-01T00:44:09.767Z,2.69
2023-04-01T00:47:14.269Z,2.86
2023-04-01T00:50:18.566Z,2.28
2023-04-01T00:53:23.294Z,2.07
2023-04-01T00:56:26.980Z,2.02
2023-04-01T00:59:30.863Z,1.56
2023-04-01T01:02:34.958Z,1.52
2023-04-01T01:05:48.581Z,1.47
2023-04-01T01:08:53.510Z,1.66
2023-04-01T01:11:58.857Z,1.51
2023-04-01T01:15:03.228Z,1.50
2023-04-01T01:18:07.233Z,1.95
2023-04-01T01:21:11.109Z,1.62
2023-04-01T01:24:15.114Z,1.94
2023-04-01T01:27:19.131Z,1.74
2023-04-01T01:30:23.071Z,1.52
2023-04-01T01:33:27.076Z,1.51
2023-04-01T01:36:30.967Z,1.41
2023-04-01T01:39:34.871Z,1.46
2023-04-01T01:42:38.843Z,1.27
2023-04-01T01:45:42.994Z,1.26
2023-04-01T01:48:46.986Z,1.18
2023-04-01T01:51:50.853Z,1.37
2023-04-01T01:54:54.942Z,1.42
2023-04-01T01:57:58.751Z,1.43
2023-04-01T02:01:02.659Z,1.61
2023-04-01T02:04:06.893Z,1.67
2023-04-01T02:07:10.632Z,1.75
2023-04-01T02:10:14.652Z,1.67
2023-04-01T02:13:18.610Z,1.59
2023-04-01T02:16:22.818Z,1.76
2023-04-01T02:19:26.805Z,1.51
2023-04-01T02:22:30.890Z,1.56
2023-04-01T02:25:34.937Z,1.45
2023-04-01T02:28:39.527Z,1.95
2023-04-01T02:31:43.478Z,1.76
2023-04-01T02:34:47.602Z,1.73
2023-04-01T02:37:51.864Z,1.92
2023-04-01T02:40:55.566Z,1.55
2023-04-01T02:44:01.934Z,1.74
2023-04-01T02:47:06.191Z,1.74
2023-04-01T02:50:10.205Z,1.79
2023-04-01T02:53:14.243Z,2.04
2023-04-01T02:56:17.892Z,1.70
2023-04-01T02:59:24.905Z,1.35
2023-04-01T03:02:28.966Z,1.59
2023-04-01T03:05:33.478Z,1.48
2023-04-01T03:08:37.846Z,1.30
2023-04-01T03:11:43.163Z,1.10
2023-04-01T03:14:47.010Z,1.05
2023-04-01T03:17:50.915Z,1.11
2023-04-01T03:20:54.932Z,1.14
2023-04-01T03:23:59.024Z,0.98
2023-04-01T03:27:03.112Z,1.14
2023-04-01T03:30:08.818Z,1.07
2023-04-01T03:33:12.768Z,1.26
2023-04-01T03:36:16.586Z,1.27
2023-04-01T03:39:20.343Z,1.62
2023-04-01T03:42:24.485Z,1.37
2023-04-01T03:45:28.639Z,1.13
2023-04-01T03:48:35.710Z,1.36
2023-04-01T03:51:39.428Z,1.51
2023-04-01T03:54:43.448Z,1.32
2023-04-01T03:57:49.726Z,1.28
2023-04-01T04:00:53.783Z,1.66
2023-04-01T04:03:57.750Z,2.21
2023-04-01T04:07:02.266Z,1.54
2023-04-01T04:10:06.269Z,1.59
2023-04-01T04:13:10.255Z,1.91
2023-04-01T04:16:15.061Z,1.67
2023-04-01T04:19:19.417Z,2.21
2023-04-01T04:22:23.488Z,2.03
2023-04-01T04:25:27.573Z,2.13
2023-04-01T04:28:31.837Z,2.63
2023-04-01T04:31:35.457Z,2.90
2023-04-01T04:34:39.566Z,2.20
2023-04-01T04:37:43.708Z,1.95
2023-04-01T04:40:47.822Z,1.85
2023-04-01T04:43:51.499Z,1.56
2023-04-01T04:46:58.267Z,1.56
2023-04-01T04:50:02.284Z,1.51
2023-04-01T04:53:06.196Z,1.54
2023-04-01T04:56:11.664Z,1.20
2023-04-01T04:59:16.082Z,1.52
2023-04-01T05:02:20.848Z,1.52
2023-04-01T05:05:24.957Z,1.16
2023-04-01T05:08:28.948Z,1.20
2023-04-01T05:11:33.156Z,1.08
2023-04-01T05:14:37.122Z,0.93
2023-04-01T05:17:41.071Z,1.36
2023-04-01T05:20:44.857Z,1.08
2023-04-01T05:23:48.873Z,1.27
2023-04-01T05:26:53.868Z,1.02
2023-04-01T05:29:59.772Z,1.20
2023-04-01T05:33:03.503Z,1.15
2023-04-01T05:36:07.088Z,1.33
2023-04-01T05:39:11.120Z,1.04
2023-04-01T05:42:15.011Z,0.98
2023-04-01T05:45:21.963Z,1.37
2023-04-01T05:48:25.761Z,1.33
2023-04-01T05:51:29.585Z,1.65
2023-04-01T05:54:33.438Z,1.96
2023-04-01T05:57:37.769Z,1.46
2023-04-01T06:00:42.099Z,1.11
2023-04-01T06:03:45.972Z,1.43
2023-04-01T06:06:50.255Z,1.30
2023-04-01T06:09:54.147Z,1.63
2023-04-01T06:12:58.412Z,0.89
2023-04-01T06:16:02.435Z,1.10
2023-04-01T06:19:06.579Z,1.40
2023-04-01T06:22:10.482Z,1.58
2023-04-01T06:25:15.966Z,1.34
2023-04-01T06:28:19.985Z,1.32
2023-04-01T06:31:23.960Z,0.67
2023-04-01T06:34:31.519Z,0.76
2023-04-01T06:37:35.570Z,0.46
2023-04-01T06:40:39.541Z,0.68
2023-04-01T06:43:43.260Z,0.74
2023-04-01T06:46:47.684Z,0.84
2023-04-01T06:49:51.261Z,0.72
2023-04-01T06:52:55.073Z,0.80
2023-04-01T06:56:01.268Z,1.07
2023-04-01T06:59:05.696Z,0.83
2023-04-01T07:02:09.801Z,0.83
2023-04-01T12:09:09.561Z,0.48
2023-04-01T21:55:54.358Z,1.34
2023-04-01T22:06:34.910Z,4.77
2023-04-01T22:16:31.581Z,1.75
2023-04-01T22:23:52.832Z,0.86
2023-04-01T22:27:06.466Z,0.78
2023-04-01T22:30:29.800Z,0.82
2023-04-01T22:52:05.369Z,0.73
2023-04-01T22:54:57.377Z,0.83
2023-04-01T23:02:07.451Z,1.12
2023-04-01T23:35:04.372Z,0.76
